Time;durP1;ratioP1;P1;durP2;ratioP2;P2;SDS_P1;SDS_P2;PMS_P1;PMS_P2;Temp;Humidity;BMP_temperature;BMP_pressure;BME280_temperature;BME280_humidity;BME280_pressure;Samples;Min_cycle;Max_cycle;Signal;HPM_P1;HPM_P2
2023/08/13 00:00:17;;;;;;;84.17;40.00;;;19.20;99.90;;;;;;4936959;29;20195;-79
2023/08/13 00:02:43;;;;;;;81.00;35.40;;;19.20;99.90;;;;;;4936888;29;20225;-79
2023/08/13 00:05:09;;;;;;;79.90;30.27;;;19.20;99.90;;;;;;4937141;29;20409;-79
2023/08/13 00:07:35;;;;;;;81.43;32.43;;;19.20;99.90;;;;;;4919827;29;20250;-79
2023/08/13 00:10:02;;;;;;;80.90;33.43;;;19.20;99.90;;;;;;4936665;29;20426;-79
2023/08/13 00:12:28;;;;;;;80.77;32.90;;;19.20;99.90;;;;;;4936862;29;20484;-79
2023/08/13 00:14:54;;;;;;;82.20;31.73;;;19.20;99.90;;;;;;4937226;29;20411;-79
2023/08/13 00:17:19;;;;;;;81.43;35.07;;;19.10;99.90;;;;;;4936796;29;20204;-79
2023/08/13 00:19:45;;;;;;;85.57;46.20;;;19.10;99.90;;;;;;4940724;29;20195;-79
2023/08/13 00:22:11;;;;;;;86.93;45.73;;;19.00;99.90;;;;;;4940791;29;20197;-79
2023/08/13 00:24:36;;;;;;;83.60;38.97;;;18.90;99.90;;;;;;4923544;29;20177;-79
2023/08/13 00:27:02;;;;;;;82.10;37.73;;;19.00;99.90;;;;;;4940403;29;20181;-79
2023/08/13 00:29:28;;;;;;;93.43;44.23;;;18.90;99.90;;;;;;4940254;29;20213;-79
2023/08/13 00:31:55;;;;;;;85.20;42.40;;;18.90;99.90;;;;;;4923246;29;20444;-79
2023/08/13 00:34:21;;;;;;;85.03;43.43;;;18.90;99.90;;;;;;4940317;29;20889;-79
2023/08/13 00:36:47;;;;;;;81.77;38.00;;;18.90;99.90;;;;;;4940378;29;20406;-79
2023/08/13 00:39:13;;;;;;;85.30;41.90;;;18.90;99.90;;;;;;4940097;29;20524;-79
2023/08/13 00:41:38;;;;;;;84.30;44.67;;;18.90;99.90;;;;;;4940204;29;20189;-79
2023/08/13 00:44:04;;;;;;;84.60;44.97;;;18.90;99.90;;;;;;4939777;29;20661;-79
2023/08/13 00:46:30;;;;;;;87.10;43.40;;;18.90;99.90;;;;;;4940043;29;20174;-79
2023/08/13 00:48:58;;;;;;;83.73;43.20;;;18.90;99.90;;;;;;4939578;29;20840;-79
2023/08/13 00:51:26;;;;;;;88.70;49.77;;;18.90;99.90;;;;;;4922800;29;20420;-79
2023/08/13 00:53:52;;;;;;;89.03;53.07;;;18.90;99.90;;;;;;4939871;29;20409;-79
2023/08/13 00:56:19;;;;;;;93.00;58.47;;;19.00;99.90;;;;;;4939858;29;20405;-79
2023/08/13 00:58:46;;;;;;;91.07;58.40;;;19.00;99.90;;;;;;4922151;29;20505;-79
2023/08/13 01:01:12;;;;;;;89.70;49.03;;;19.00;99.90;;;;;;4922237;29;20409;-79
2023/08/13 01:03:38;;;;;;;89.30;55.43;;;18.90;99.90;;;;;;4939534;29;20455;-79
2023/08/13 01:06:45;;;;;;;92.43;55.17;;;18.90;99.90;;;;;;4922311;29;20920;-79
2023/08/13 01:09:15;;;;;;;93.73;68.80;;;19.00;99.90;;;;;;4939277;29;20827;-79
2023/08/13 01:11:43;;;;;;;93.90;67.07;;;18.90;99.90;;;;;;4938939;29;20418;-79
2023/08/13 01:14:22;;;;;;;95.67;60.13;;;18.80;99.90;;;;;;4939104;29;20398;-79
2023/08/13 01:16:51;;;;;;;93.20;62.13;;;18.70;99.90;;;;;;4939172;29;20415;-79
2023/08/13 01:19:17;;;;;;;95.70;64.23;;;18.70;99.90;;;;;;4922017;29;20445;-79
2023/08/13 01:21:43;;;;;;;91.13;55.63;;;18.70;99.90;;;;;;4922272;29;20453;-79
2023/08/13 01:24:09;;;;;;;90.37;57.10;;;18.80;99.90;;;;;;4939341;29;20408;-79
2023/08/13 01:26:48;;;;;;;89.80;54.93;;;18.70;99.90;;;;;;4939097;29;20169;-79
2023/08/13 01:29:25;;;;;;;89.37;58.13;;;18.70;99.90;;;;;;4938760;29;20421;-79
2023/08/13 01:31:56;;;;;;;96.80;69.23;;;18.60;99.90;;;;;;4938814;29;20484;-79
2023/08/13 01:34:22;;;;;;;99.33;71.80;;;18.50;99.90;;;;;;4939329;29;20390;-79
2023/08/13 01:36:48;;;;;;;98.33;71.63;;;18.50;99.90;;;;;;4938775;29;20521;-79
2023/08/13 01:39:14;;;;;;;98.50;71.13;;;18.50;99.90;;;;;;4938647;29;20442;-79
2023/08/13 01:41:50;;;;;;;98.63;71.07;;;18.50;99.90;;;;;;4938757;29;20453;-79
2023/08/13 01:44:16;;;;;;;94.50;66.50;;;18.60;99.90;;;;;;4922353;29;20406;-79
2023/08/13 01:46:42;;;;;;;100.00;59.43;;;18.50;99.90;;;;;;4939160;29;20416;-79
2023/08/13 01:49:08;;;;;;;94.10;64.43;;;18.60;99.90;;;;;;4938693;29;20511;-79
2023/08/13 01:51:33;;;;;;;94.40;66.03;;;18.60;99.90;;;;;;4938668;29;20168;-79
2023/08/13 01:53:59;;;;;;;93.37;59.33;;;18.50;99.90;;;;;;4938474;29;20173;-79
2023/08/13 01:56:25;;;;;;;92.97;58.77;;;18.50;99.90;;;;;;4938588;29;20925;-79
2023/08/13 01:58:50;;;;;;;95.17;67.33;;;18.50;99.90;;;;;;4938404;29;20208;-79
2023/08/13 02:01:16;;;;;;;93.00;56.30;;;18.40;99.90;;;;;;4938907;29;20533;-79
2023/08/13 02:03:43;;;;;;;89.00;54.77;;;18.40;99.90;;;;;;4938484;29;20537;-79
2023/08/13 02:06:09;;;;;;;89.40;53.23;;;18.40;99.90;;;;;;4938434;29;20169;-79
2023/08/13 02:08:34;;;;;;;89.50;54.67;;;18.30;99.90;;;;;;4938683;29;20411;-79
2023/08/13 02:11:00;;;;;;;90.50;55.63;;;18.30;99.90;;;;;;4938280;29;20169;-79
2023/08/13 02:13:25;;;;;;;90.67;54.73;;;18.30;99.90;;;;;;4938579;29;20553;-79
2023/08/13 02:15:51;;;;;;;89.90;50.43;;;18.20;99.90;;;;;;4938888;29;20164;-79
2023/08/13 02:18:17;;;;;;;90.83;54.37;;;18.10;99.90;;;;;;4938372;29;20173;-79
2023/08/13 02:20:42;;;;;;;91.87;57.13;;;18.10;99.90;;;;;;4920998;29;20220;-79
2023/08/13 02:23:08;;;;;;;91.57;56.50;;;18.00;99.90;;;;;;4937967;29;20180;-79
2023/08/13 02:25:34;;;;;;;97.87;64.77;;;18.00;99.90;;;;;;4938045;29;20166;-79
2023/08/13 02:28:00;;;;;;;95.23;63.40;;;17.80;99.90;;;;;;4920903;29;20248;-79
2023/08/13 02:30:25;;;;;;;93.50;54.10;;;17.90;99.90;;;;;;4937978;29;20420;-79
2023/08/13 02:32:51;;;;;;;95.77;63.80;;;17.90;99.90;;;;;;4938299;29;20172;-79
2023/08/13 02:35:17;;;;;;;99.43;57.17;;;17.70;99.90;;;;;;4938001;29;20641;-79
2023/08/13 02:37:42;;;;;;;94.30;63.93;;;17.70;99.90;;;;;;4938248;29;20169;-79
2023/08/13 02:40:11;;;;;;;96.23;64.43;;;17.70;99.90;;;;;;4920615;29;20303;-79
2023/08/13 02:42:37;;;;;;;89.67;53.23;;;17.60;99.90;;;;;;4937611;29;20185;-79
2023/08/13 02:45:03;;;;;;;92.93;60.23;;;17.60;99.90;;;;;;4937907;29;20428;-79
2023/08/13 02:47:29;;;;;;;93.07;64.87;;;17.50;99.90;;;;;;4937968;29;20282;-79
2023/08/13 02:49:54;;;;;;;95.20;63.10;;;17.50;99.90;;;;;;4937711;29;20825;-79
2023/08/13 02:52:20;;;;;;;91.70;57.87;;;17.40;99.90;;;;;;4937869;29;20232;-79
2023/08/13 02:54:46;;;;;;;92.87;61.77;;;17.40;99.90;;;;;;4937409;29;20251;-79
2023/08/13 02:57:11;;;;;;;90.83;53.93;;;17.40;99.90;;;;;;4920571;29;20539;-79
2023/08/13 02:59:37;;;;;;;93.10;63.07;;;17.40;99.90;;;;;;4937215;29;20763;-79
2023/08/13 03:02:03;;;;;;;96.63;68.50;;;17.40;99.90;;;;;;4937603;29;20189;-79
2023/08/13 03:04:28;;;;;;;101.20;63.60;;;17.30;99.90;;;;;;4937427;29;20172;-79
2023/08/13 03:06:54;;;;;;;102.83;75.80;;;17.30;99.90;;;;;;4937794;29;20203;-79
2023/08/13 03:09:21;;;;;;;97.47;69.77;;;17.30;99.90;;;;;;4937485;29;20196;-79
2023/08/13 03:11:48;;;;;;;105.60;74.60;;;17.30;99.90;;;;;;4936923;29;20185;-79
2023/08/13 03:14:13;;;;;;;101.27;69.87;;;17.30;99.90;;;;;;4937462;29;20947;-79
2023/08/13 03:16:39;;;;;;;101.87;73.10;;;17.30;99.90;;;;;;4937295;29;20449;-79
2023/08/13 03:19:05;;;;;;;108.27;73.47;;;17.30;99.90;;;;;;4937113;29;20203;-79
2023/08/13 03:21:30;;;;;;;98.37;67.93;;;17.20;99.90;;;;;;4936994;29;20177;-79
2023/08/13 03:23:56;;;;;;;100.90;68.07;;;17.20;99.90;;;;;;4936948;29;20180;-79
2023/08/13 03:26:22;;;;;;;94.93;65.13;;;17.20;99.90;;;;;;4937106;29;20289;-79
2023/08/13 03:28:47;;;;;;;96.63;64.67;;;17.10;99.90;;;;;;4919969;29;20244;-79
2023/08/13 03:31:13;;;;;;;93.47;53.03;;;17.10;99.90;;;;;;4937326;29;20169;-79
2023/08/13 03:33:39;;;;;;;93.20;65.37;;;17.20;99.90;;;;;;4937438;29;20200;-79
2023/08/13 03:36:04;;;;;;;97.63;63.60;;;17.10;99.90;;;;;;4936949;29;20171;-79
2023/08/13 03:38:30;;;;;;;103.63;67.73;;;17.10;99.90;;;;;;4937119;29;20210;-79
2023/08/13 03:40:56;;;;;;;92.90;64.43;;;17.10;99.90;;;;;;4936921;29;20244;-79
2023/08/13 03:43:22;;;;;;;98.10;57.53;;;17.10;99.90;;;;;;4937247;29;20283;-79
2023/08/13 03:45:48;;;;;;;93.90;63.13;;;17.00;99.90;;;;;;4937222;29;20463;-79
2023/08/13 03:48:14;;;;;;;96.93;64.60;;;17.00;99.90;;;;;;4937098;29;20508;-79
2023/08/13 03:50:41;;;;;;;92.83;50.13;;;16.90;99.90;;;;;;4936564;29;20192;-79
2023/08/13 03:53:07;;;;;;;94.77;69.97;;;16.90;99.90;;;;;;4921183;29;20184;-79
2023/08/13 03:55:33;;;;;;;97.03;69.43;;;16.90;99.90;;;;;;4940593;29;20420;-79
2023/08/13 03:57:58;;;;;;;91.30;63.23;;;16.80;99.90;;;;;;4940752;29;20432;-79
2023/08/13 04:00:24;;;;;;;98.17;70.60;;;16.80;99.90;;;;;;4940909;29;20197;-79
2023/08/13 04:02:50;;;;;;;96.60;69.23;;;16.70;99.90;;;;;;4940438;29;20221;-79
2023/08/13 04:05:16;;;;;;;98.40;65.07;;;16.70;99.90;;;;;;4940257;29;20172;-79
2023/08/13 04:07:42;;;;;;;88.57;57.73;;;16.60;99.90;;;;;;4940721;29;20645;-80
2023/08/13 04:10:08;;;;;;;92.90;60.67;;;16.70;99.90;;;;;;4940756;29;20420;-80
2023/08/13 04:12:33;;;;;;;93.40;55.33;;;16.70;99.90;;;;;;4940416;29;20664;-80
2023/08/13 04:14:59;;;;;;;92.03;65.47;;;16.80;99.90;;;;;;4923178;29;20420;-80
2023/08/13 04:17:25;;;;;;;89.50;54.67;;;16.80;99.90;;;;;;4940732;29;20204;-80
2023/08/13 04:19:50;;;;;;;92.67;58.10;;;16.70;99.90;;;;;;4940576;29;20201;-80
2023/08/13 04:22:16;;;;;;;92.67;60.33;;;16.70;99.90;;;;;;4940253;29;20192;-80
2023/08/13 04:24:42;;;;;;;94.80;67.03;;;16.70;99.90;;;;;;4923164;29;20176;-80
2023/08/13 04:27:10;;;;;;;91.03;60.33;;;16.80;99.90;;;;;;4940058;29;20176;-80
2023/08/13 04:29:36;;;;;;;94.63;58.93;;;16.80;99.90;;;;;;4939985;29;20188;-80
2023/08/13 04:32:02;;;;;;;95.43;60.73;;;16.80;99.90;;;;;;4939902;29;20913;-80
2023/08/13 04:34:27;;;;;;;89.83;53.70;;;16.80;99.90;;;;;;4940209;29;20655;-80
2023/08/13 04:36:53;;;;;;;87.90;53.00;;;16.80;99.90;;;;;;4922951;29;20424;-80
2023/08/13 04:39:19;;;;;;;93.27;65.97;;;16.80;99.90;;;;;;4939771;29;20251;-80
2023/08/13 04:41:45;;;;;;;91.97;60.57;;;16.70;99.90;;;;;;4939681;29;20193;-80
2023/08/13 04:44:10;;;;;;;95.43;62.03;;;16.70;99.90;;;;;;4940496;29;20169;-80
2023/08/13 04:46:36;;;;;;;96.13;56.83;;;16.70;99.90;;;;;;4940017;29;20165;-80
2023/08/13 04:49:02;;;;;;;94.60;62.37;;;16.70;99.90;;;;;;4939574;29;20192;-80
2023/08/13 04:51:27;;;;;;;91.90;56.77;;;16.80;99.90;;;;;;4939582;29;20164;-80
2023/08/13 04:53:53;;;;;;;90.30;57.43;;;16.80;99.90;;;;;;4939803;29;20624;-80
2023/08/13 04:56:19;;;;;;;92.63;58.50;;;16.80;99.90;;;;;;4922446;29;20558;-80
2023/08/13 04:58:44;;;;;;;90.63;57.70;;;16.80;99.90;;;;;;4939303;29;20496;-80
2023/08/13 05:01:10;;;;;;;91.83;61.77;;;16.80;99.90;;;;;;4939801;29;20232;-80
2023/08/13 05:03:39;;;;;;;87.17;48.43;;;16.80;99.90;;;;;;4939407;29;20225;-80
2023/08/13 05:06:04;;;;;;;91.73;56.63;;;16.90;99.90;;;;;;4938446;29;20171;-80
2023/08/13 05:08:30;;;;;;;84.80;44.73;;;17.00;99.90;;;;;;4939519;29;20411;-80
2023/08/13 05:10:56;;;;;;;89.20;57.90;;;17.20;99.90;;;;;;4939494;29;20220;-80
2023/08/13 05:13:21;;;;;;;89.43;51.33;;;17.10;99.90;;;;;;4939563;29;20200;-80
2023/08/13 05:15:47;;;;;;;89.80;54.40;;;17.10;99.90;;;;;;4939473;29;20192;-80
2023/08/13 05:18:12;;;;;;;90.60;52.03;;;17.10;99.90;;;;;;4939452;29;20169;-80
2023/08/13 05:20:38;;;;;;;88.87;49.73;;;17.10;99.90;;;;;;4939162;29;20275;-80
2023/08/13 05:23:05;;;;;;;90.87;53.43;;;17.10;99.90;;;;;;4921842;29;20200;-80
2023/08/13 05:25:36;;;;;;;87.17;47.97;;;17.30;99.90;;;;;;4939131;29;20176;-80
2023/08/13 05:28:02;;;;;;;91.63;56.57;;;17.30;99.90;;;;;;4939027;29;20952;-80
2023/08/13 05:30:28;;;;;;;85.87;48.23;;;17.40;99.90;;;;;;4939037;29;20504;-80
2023/08/13 05:32:53;;;;;;;90.43;53.87;;;17.40;99.90;;;;;;4939006;29;20649;-80
2023/08/13 05:35:19;;;;;;;92.50;54.37;;;17.40;99.90;;;;;;4939132;29;20423;-80
2023/08/13 05:37:45;;;;;;;88.47;52.97;;;17.50;99.90;;;;;;4939320;29;20171;-80
2023/08/13 05:40:10;;;;;;;91.30;57.23;;;17.50;99.90;;;;;;4938929;29;20276;-80
2023/08/13 05:42:36;;;;;;;89.00;52.73;;;17.60;99.90;;;;;;4938761;29;20193;-80
2023/08/13 05:45:02;;;;;;;96.03;54.10;;;17.70;99.90;;;;;;4938962;29;20797;-80
2023/08/13 05:47:28;;;;;;;93.13;51.50;;;17.80;99.90;;;;;;4938562;29;20167;-80
2023/08/13 05:49:54;;;;;;;93.17;58.30;;;17.90;99.90;;;;;;4921680;29;20535;-80
2023/08/13 05:52:20;;;;;;;89.67;52.73;;;18.00;99.90;;;;;;4939499;29;20220;-80
2023/08/13 05:54:49;;;;;;;89.53;52.77;;;18.10;99.90;;;;;;4938393;29;20175;-80
2023/08/13 05:57:14;;;;;;;98.90;54.03;;;18.20;99.90;;;;;;4938371;29;20472;-80
2023/08/13 05:59:40;;;;;;;92.73;51.83;;;18.30;99.90;;;;;;4938167;29;20480;-80
2023/08/13 06:02:06;;;;;;;88.80;53.83;;;18.40;99.90;;;;;;4939487;29;20192;-80
2023/08/13 06:04:34;;;;;;;88.57;52.70;;;18.50;99.90;;;;;;4938994;29;20164;-80
2023/08/13 06:07:01;;;;;;;93.57;50.47;;;18.60;99.90;;;;;;4938602;29;20165;-80
2023/08/13 06:09:27;;;;;;;88.37;48.87;;;18.70;99.90;;;;;;4938694;29;20784;-80
2023/08/13 06:11:52;;;;;;;90.43;52.97;;;18.70;99.90;;;;;;4938636;29;20412;-80
2023/08/13 06:14:18;;;;;;;92.43;52.97;;;18.70;99.90;;;;;;4921464;29;20688;-80
2023/08/13 06:16:44;;;;;;;89.33;54.73;;;18.70;99.90;;;;;;4938241;29;20672;-80
2023/08/13 06:19:12;;;;;;;90.60;51.67;;;18.80;99.90;;;;;;4938277;29;20192;-80
2023/08/13 06:21:38;;;;;;;92.80;54.20;;;18.80;99.90;;;;;;4921163;29;20233;-80
2023/08/13 06:24:08;;;;;;;94.67;53.40;;;19.00;99.90;;;;;;4938400;29;20402;-80
2023/08/13 06:26:34;;;;;;;90.13;56.50;;;19.00;99.90;;;;;;4938433;29;20411;-80
2023/08/13 06:29:00;;;;;;;96.40;62.63;;;19.10;99.90;;;;;;4938642;29;20864;-80
2023/08/13 06:31:25;;;;;;;89.90;49.40;;;19.20;99.90;;;;;;4938535;29;20478;-80
2023/08/13 06:33:51;;;;;;;97.10;55.87;;;19.30;99.90;;;;;;4938633;29;20680;-80
2023/08/13 06:36:17;;;;;;;95.17;46.77;;;19.30;99.90;;;;;;4938536;29;20412;-80
2023/08/13 06:38:43;;;;;;;90.47;54.17;;;19.30;99.90;;;;;;4938109;29;20223;-80
2023/08/13 06:41:08;;;;;;;90.73;49.70;;;19.50;99.90;;;;;;4938305;29;20488;-80
2023/08/13 06:43:34;;;;;;;87.50;47.70;;;19.60;99.90;;;;;;4937983;29;20530;-81
2023/08/13 06:46:01;;;;;;;86.97;40.10;;;19.60;99.90;;;;;;4937948;29;20172;-80
2023/08/13 06:48:28;;;;;;;85.00;43.60;;;19.70;99.90;;;;;;4939053;29;20529;-81
2023/08/13 06:50:55;;;;;;;87.57;39.00;;;19.90;99.90;;;;;;4939439;29;20460;-80
2023/08/13 06:53:20;;;;;;;85.07;34.60;;;19.90;99.90;;;;;;4939180;29;20767;-81
2023/08/13 06:55:46;;;;;;;78.97;17.83;;;19.90;99.90;;;;;;4939410;29;20416;-80
2023/08/13 06:58:11;;;;;;;75.77;13.20;;;20.00;99.90;;;;;;4921835;29;20193;-80
2023/08/13 07:00:37;;;;;;;75.33;13.53;;;20.10;99.90;;;;;;4939347;29;20195;-80
2023/08/13 07:03:04;;;;;;;76.10;11.87;;;20.30;99.90;;;;;;4939139;29;20185;-80
2023/08/13 07:05:29;;;;;;;77.37;9.77;;;20.40;99.90;;;;;;4939289;29;20456;-80
2023/08/13 07:07:55;;;;;;;77.50;9.17;;;20.30;99.90;;;;;;4921601;29;20413;-80
2023/08/13 07:10:21;;;;;;;75.40;9.47;;;20.40;99.90;;;;;;4938676;29;20235;-81
2023/08/13 07:12:47;;;;;;;73.27;10.00;;;20.40;99.90;;;;;;4939266;29;20165;-80
2023/08/13 07:15:12;;;;;;;74.63;9.27;;;20.50;99.90;;;;;;4939282;29;20528;-80
2023/08/13 07:17:38;;;;;;;85.40;10.77;;;20.60;99.90;;;;;;4938938;29;20177;-80
2023/08/13 07:20:08;;;;;;;73.50;10.93;;;20.60;99.90;;;;;;4938910;29;20191;-80
2023/08/13 07:22:34;;;;;;;74.90;10.97;;;20.70;99.90;;;;;;4938857;29;20177;-80
2023/08/13 07:25:00;;;;;;;77.10;11.90;;;20.80;99.90;;;;;;4938429;29;20404;-80
2023/08/13 07:27:26;;;;;;;80.90;15.97;;;20.70;99.90;;;;;;4938627;29;20891;-80
2023/08/13 07:29:51;;;;;;;80.87;15.40;;;20.80;99.90;;;;;;4938705;29;20606;-81
2023/08/13 07:32:17;;;;;;;77.37;16.50;;;20.80;99.90;;;;;;4938581;29;20169;-80
2023/08/13 07:34:43;;;;;;;76.07;15.33;;;20.90;99.90;;;;;;4938715;29;20517;-80
2023/08/13 07:37:08;;;;;;;76.70;15.60;;;20.80;99.90;;;;;;4938391;29;20183;-81
2023/08/13 07:39:34;;;;;;;75.30;18.40;;;20.80;99.90;;;;;;4938375;29;20194;-80
2023/08/13 07:41:59;;;;;;;80.30;18.83;;;20.90;99.90;;;;;;4938508;29;20198;-80
2023/08/13 07:44:25;;;;;;;78.83;21.13;;;21.00;99.90;;;;;;4938664;29;20637;-80
2023/08/13 07:46:58;;;;;;;80.00;18.13;;;21.00;93.60;;;;;;4938705;29;20175;-80
2023/08/13 07:49:24;;;;;;;78.77;20.40;;;20.90;85.30;;;;;;4938149;29;20940;-80
2023/08/13 07:51:50;;;;;;;83.20;21.40;;;20.80;72.80;;;;;;4938997;29;20415;-80
2023/08/13 07:54:16;;;;;;;80.27;22.43;;;20.80;75.20;;;;;;4938605;29;20420;-81
2023/08/13 07:56:42;;;;;;;80.00;24.37;;;21.00;79.90;;;;;;4938130;29;20170;-80
2023/08/13 07:59:09;;;;;;;80.90;23.87;;;21.10;83.50;;;;;;4938061;29;20203;-81
2023/08/13 08:01:35;;;;;;;80.83;22.97;;;21.20;92.90;;;;;;4938666;29;20420;-80
2023/08/13 08:04:04;;;;;;;78.63;23.23;;;21.30;82.50;;;;;;4938509;29;20396;-80
2023/08/13 08:06:30;;;;;;;80.20;22.10;;;21.20;75.60;;;;;;4937942;29;20543;-80
2023/08/13 08:08:55;;;;;;;81.63;17.30;;;21.30;83.70;;;;;;4938255;29;20420;-80
2023/08/13 08:11:21;;;;;;;80.73;18.57;;;21.40;63.40;;;;;;4937739;29;20638;-80
2023/08/13 08:13:47;;;;;;;78.97;15.40;;;21.50;73.10;;;;;;4937909;29;20527;-80
2023/08/13 08:16:12;;;;;;;77.60;18.37;;;21.60;72.80;;;;;;4937766;29;20179;-80
2023/08/13 08:18:38;;;;;;;80.53;20.77;;;21.70;76.90;;;;;;4937841;29;20536;-80
2023/08/13 08:21:04;;;;;;;77.27;16.97;;;21.80;74.00;;;;;;4938001;29;20169;-80
2023/08/13 08:23:30;;;;;;;75.83;10.80;;;21.80;67.40;;;;;;4937214;29;20268;-80
2023/08/13 08:25:56;;;;;;;75.00;8.97;;;21.90;68.60;;;;;;4937446;29;20176;-80
2023/08/13 08:28:22;;;;;;;73.73;8.80;;;22.00;51.10;;;;;;4920027;29;20415;-80
2023/08/13 08:30:47;;;;;;;73.00;9.67;;;22.00;55.60;;;;;;4937543;29;20958;-79
2023/08/13 08:33:13;;;;;;;76.27;6.47;;;22.00;53.40;;;;;;4938274;29;20233;-80
2023/08/13 08:35:39;;;;;;;80.07;13.90;;;21.90;44.90;;;;;;4938282;29;20201;-80
2023/08/13 08:38:04;;;;;;;76.90;13.00;;;21.90;58.00;;;;;;4938148;29;20200;-79
2023/08/13 08:40:30;;;;;;;76.23;12.40;;;21.90;58.80;;;;;;4941280;29;20185;-79
2023/08/13 08:42:56;;;;;;;79.50;9.00;;;22.00;55.70;;;;;;4924216;29;20193;-79
2023/08/13 08:45:22;;;;;;;77.27;11.27;;;22.10;49.50;;;;;;4941624;29;20240;-79
2023/08/13 08:47:51;;;;;;;73.90;12.57;;;22.00;50.60;;;;;;4941302;29;20439;-79
2023/08/13 08:50:17;;;;;;;76.27;8.70;;;21.90;49.10;;;;;;4940650;29;20428;-79
2023/08/13 08:52:43;;;;;;;72.97;7.43;;;22.10;51.70;;;;;;4941558;29;20419;-79
2023/08/13 08:55:12;;;;;;;76.30;7.00;;;22.10;30.00;;;;;;4940962;29;20504;-79
2023/08/13 08:57:38;;;;;;;72.20;6.57;;;22.10;26.50;;;;;;4940829;29;20775;-79
2023/08/13 09:00:05;;;;;;;72.87;8.10;;;22.20;36.00;;;;;;4940984;29;20479;-79
2023/08/13 09:02:31;;;;;;;73.37;7.87;;;22.40;37.80;;;;;;4942112;29;20431;-80
2023/08/13 09:04:58;;;;;;;75.60;6.23;;;22.50;36.80;;;;;;4923873;29;20437;-79
2023/08/13 09:07:33;;;;;;;71.27;5.00;;;22.60;23.90;;;;;;4940584;29;20405;-79
2023/08/13 09:10:02;;;;;;;71.87;5.20;;;22.50;2.40;;;;;;4940562;29;20431;-79
2023/08/13 09:12:36;;;;;;;69.87;4.87;;;22.40;16.50;;;;;;4943015;29;20420;-80
2023/08/13 09:15:10;;;;;;;77.57;5.53;;;22.60;16.50;;;;;;4924101;29;20397;-79
2023/08/13 09:17:37;;;;;;;71.73;4.47;;;22.70;1.00;;;;;;4940525;29;20448;-79
2023/08/13 09:20:09;;;;;;;72.20;5.03;;;22.90;6.80;;;;;;4940278;29;20429;-79
2023/08/13 09:22:35;;;;;;;73.00;6.50;;;22.90;11.30;;;;;;4923382;29;20498;-79
2023/08/13 09:25:02;;;;;;;74.43;5.33;;;23.20;14.20;;;;;;4940585;29;20405;-79
2023/08/13 09:27:28;;;;;;;74.83;4.20;;;23.30;8.20;;;;;;4940710;29;20164;-79
2023/08/13 09:29:57;;;;;;;78.20;4.70;;;23.30;1.00;;;;;;4940378;29;20472;-80
2023/08/13 09:32:22;;;;;;;71.53;4.53;;;23.30;1.00;;;;;;4941030;29;20412;-79
2023/08/13 09:34:51;;;;;;;72.97;4.60;;;23.10;1.00;;;;;;4941079;29;20415;-79
2023/08/13 09:37:17;;;;;;;71.27;5.00;;;23.20;3.50;;;;;;4941319;29;20164;-80
2023/08/13 09:39:43;;;;;;;72.67;4.83;;;23.40;10.00;;;;;;4940318;29;20512;-80
2023/08/13 09:42:09;;;;;;;72.87;4.60;;;23.50;1.00;;;;;;4940820;29;20261;-79
2023/08/13 09:44:35;;;;;;;72.33;4.53;;;23.60;4.10;;;;;;4923959;29;20541;-80
2023/08/13 09:47:03;;;;;;;71.73;4.27;;;23.70;1.00;;;;;;4941567;29;20415;-80
2023/08/13 09:49:31;;;;;;;74.30;4.80;;;23.90;2.10;;;;;;4940414;29;20197;-80
2023/08/13 09:52:08;;;;;;;79.37;4.00;;;24.10;1.00;;;;;;4940637;29;20404;-79
2023/08/13 09:54:53;;;;;;;75.70;4.20;;;24.30;1.00;;;;;;4940979;29;20420;-79
2023/08/13 09:57:22;;;;;;;76.00;4.60;;;24.20;1.00;;;;;;4941058;29;20419;-80
2023/08/13 09:59:51;;;;;;;72.33;4.70;;;24.30;1.00;;;;;;4940610;29;20437;-80
2023/08/13 10:02:18;;;;;;;73.47;5.43;;;24.30;1.00;;;;;;4940610;29;20456;-79
2023/08/13 10:04:45;;;;;;;75.47;5.30;;;24.30;1.00;;;;;;4940851;29;20440;-80
2023/08/13 10:07:12;;;;;;;73.80;5.90;;;24.40;1.00;;;;;;4940070;29;20504;-80
2023/08/13 10:09:40;;;;;;;78.83;5.40;;;24.80;1.00;;;;;;4939798;29;20445;-80
2023/08/13 10:12:07;;;;;;;73.27;5.10;;;25.00;1.00;;;;;;4940347;29;20493;-80
2023/08/13 10:14:33;;;;;;;72.87;6.03;;;25.20;1.00;;;;;;4939972;29;20406;-80
2023/08/13 10:17:06;;;;;;;76.67;4.60;;;25.10;1.00;;;;;;4940389;29;20437;-80
2023/08/13 10:19:44;;;;;;;75.77;4.43;;;25.30;1.00;;;;;;4939955;29;20970;-80
2023/08/13 10:22:11;;;;;;;72.60;4.07;;;25.00;1.00;;;;;;4939771;29;20501;-80
2023/08/13 10:24:38;;;;;;;71.50;3.90;;;24.60;1.00;;;;;;4940318;29;20437;-80
2023/08/13 10:27:03;;;;;;;72.27;4.00;;;24.60;1.00;;;;;;4939864;29;20919;-79
2023/08/13 10:29:41;;;;;;;72.17;3.73;;;24.90;1.00;;;;;;4940122;29;20430;-80
2023/08/13 10:32:12;;;;;;;71.07;3.83;;;25.00;1.00;;;;;;4940194;29;20178;-80
2023/08/13 10:34:54;;;;;;;79.40;4.97;;;24.50;1.00;;;;;;4941207;29;20421;-79
2023/08/13 10:37:22;;;;;;;76.77;4.00;;;24.40;1.00;;;;;;4940087;29;20777;-79
2023/08/13 10:40:06;;;;;;;72.20;4.87;;;24.10;1.00;;;;;;4939623;29;20429;-80
2023/08/13 10:42:36;;;;;;;75.93;5.37;;;24.20;1.00;;;;;;4939782;29;20449;-79
2023/08/13 10:45:04;;;;;;;75.67;5.60;;;24.30;1.00;;;;;;4940343;29;20398;-79
2023/08/13 10:47:49;;;;;;;73.07;4.90;;;24.20;1.00;;;;;;4939476;29;20425;-80
2023/08/13 10:50:25;;;;;;;71.10;4.97;;;24.20;1.00;;;;;;4940169;29;20429;-80
2023/08/13 10:52:55;;;;;;;76.07;5.40;;;24.30;1.00;;;;;;4938875;29;20385;-79
2023/08/13 10:55:24;;;;;;;71.97;5.00;;;24.70;1.00;;;;;;4939567;29;20420;-79
2023/08/13 10:57:53;;;;;;;74.40;5.63;;;24.70;1.00;;;;;;4939483;29;20872;-79
2023/08/13 11:00:29;;;;;;;73.07;4.40;;;24.80;1.00;;;;;;4939177;29;20491;-79
2023/08/13 11:03:20;;;;;;;73.13;5.37;;;24.80;1.00;;;;;;4919988;29;20868;-79
2023/08/13 11:05:47;;;;;;;73.57;4.93;;;24.90;1.00;;;;;;4938735;29;20916;-79
2023/08/13 11:08:23;;;;;;;77.20;5.57;;;25.10;1.00;;;;;;4938696;29;20456;-79
2023/08/13 11:10:50;;;;;;;75.97;4.67;;;25.00;1.00;;;;;;4938612;29;20788;-79
2023/08/13 11:13:18;;;;;;;74.60;5.63;;;24.80;1.00;;;;;;4938614;29;20406;-79
2023/08/13 11:15:52;;;;;;;76.37;5.23;;;24.70;1.00;;;;;;4938643;29;20404;-79
2023/08/13 11:18:18;;;;;;;71.57;5.93;;;24.70;1.00;;;;;;4939185;29;20414;-79
2023/08/13 11:20:45;;;;;;;74.83;6.33;;;24.60;1.00;;;;;;4922074;29;20477;-79
2023/08/13 11:23:15;;;;;;;75.00;7.03;;;24.80;1.00;;;;;;4938825;29;20836;-79
2023/08/13 11:25:43;;;;;;;74.10;6.23;;;24.80;1.00;;;;;;4938622;29;20416;-79
2023/08/13 11:28:09;;;;;;;72.27;6.00;;;24.80;1.00;;;;;;4938077;29;20918;-79
2023/08/13 11:30:40;;;;;;;74.93;8.60;;;24.80;1.00;;;;;;4938348;29;20434;-79
2023/08/13 11:33:05;;;;;;;74.90;6.10;;;25.10;1.00;;;;;;4939049;29;20165;-79
2023/08/13 11:35:32;;;;;;;77.40;9.73;;;25.00;1.00;;;;;;4921141;29;20440;-79
2023/08/13 11:37:58;;;;;;;72.47;9.13;;;24.90;1.00;;;;;;4938309;29;20262;-79
2023/08/13 11:40:24;;;;;;;75.90;7.27;;;25.10;1.00;;;;;;4938672;29;20577;-80
2023/08/13 11:42:54;;;;;;;74.70;6.00;;;25.10;1.00;;;;;;4938543;29;20996;-79
2023/08/13 11:45:23;;;;;;;82.20;9.20;;;25.20;1.00;;;;;;4938569;29;20169;-79
2023/08/13 11:47:49;;;;;;;74.60;8.13;;;25.00;1.00;;;;;;4938880;29;20409;-79
2023/08/13 11:50:23;;;;;;;75.07;5.67;;;25.30;1.00;;;;;;4939014;29;20781;-79
2023/08/13 11:53:13;;;;;;;74.60;5.80;;;25.50;1.00;;;;;;4937895;29;20411;-79
2023/08/13 11:55:45;;;;;;;71.80;5.57;;;25.50;1.00;;;;;;4938200;29;20430;-79
2023/08/13 11:58:14;;;;;;;73.17;6.60;;;25.40;1.00;;;;;;4937996;29;20515;-80
2023/08/13 12:00:41;;;;;;;76.33;10.73;;;25.30;1.00;;;;;;4938003;29;20449;-79
2023/08/13 12:03:07;;;;;;;73.67;5.40;;;25.60;1.00;;;;;;4920808;29;20471;-80
2023/08/13 12:05:34;;;;;;;73.83;5.80;;;26.10;1.00;;;;;;4937645;29;20793;-79
2023/08/13 12:08:04;;;;;;;73.00;4.40;;;26.50;1.00;;;;;;4938533;29;20176;-79
2023/08/13 12:10:32;;;;;;;71.70;4.70;;;26.50;1.00;;;;;;4921066;29;20520;-79
2023/08/13 12:12:58;;;;;;;80.90;5.10;;;26.30;1.00;;;;;;4937995;29;20529;-79
2023/08/13 12:15:25;;;;;;;70.80;4.17;;;26.30;1.00;;;;;;4941019;29;20412;-79
2023/08/13 12:17:55;;;;;;;76.40;20.10;;;26.60;1.00;;;;;;4941346;29;20413;-80
2023/08/13 12:20:22;;;;;;;77.30;18.17;;;26.30;1.00;;;;;;4941546;29;20431;-80
2023/08/13 12:22:48;;;;;;;72.77;3.80;;;26.30;1.00;;;;;;4924221;29;20452;-80
2023/08/13 12:25:13;;;;;;;72.33;2.90;;;26.90;1.00;;;;;;4941126;29;20412;-80
2023/08/13 12:27:40;;;;;;;71.57;3.17;;;27.20;1.00;;;;;;4940938;29;20529;-80
2023/08/13 12:30:06;;;;;;;71.63;3.00;;;27.30;1.00;;;;;;4941010;29;20243;-79
2023/08/13 12:32:31;;;;;;;74.60;3.10;;;27.20;1.00;;;;;;4940741;29;20412;-80